USSS 290430Z VRB01MPS 8000 NSC M25/M27 Q1042 R26L/81//60 TEMPO 0300 FG VV002 RMK QFE761/1014
QNH:(hPa/inHg/mmHg)1042 / 30.77 / 782
QFE:(hPa/inHg/mmHg)1014 / 29.93 / 760
Temperature-25
Dew Point-27
Visibility0300
WeatherFog
Cloud CoverVV (200);
Transition Height900 m./3800 ft.
Transition LevelFL50
SQUAWK